createdAt,value
2023-02-11T00:03:53.981Z,1009.7
2023-02-11T00:09:12.912Z,1009.6
2023-02-11T00:14:32.183Z,1009.5
2023-02-11T00:19:51.837Z,1009.4
2023-02-11T00:25:10.188Z,1009.4
2023-02-11T00:30:29.530Z,1009.4
2023-02-11T00:35:48.697Z,1009.4
2023-02-11T00:41:08.093Z,1009.5
2023-02-11T00:46:27.218Z,1009.5
2023-02-11T00:51:46.797Z,1009.5
2023-02-11T00:57:06.105Z,1009.5
2023-02-11T01:02:25.497Z,1009.5
2023-02-11T01:07:45.172Z,1009.4
2023-02-11T01:13:03.991Z,1009.4
2023-02-11T01:18:23.739Z,1009.4
2023-02-11T01:23:42.569Z,1009.4
2023-02-11T01:29:02.046Z,1009.3
2023-02-11T01:34:21.297Z,1009.2
2023-02-11T01:39:40.567Z,1009.1
2023-02-11T01:45:00.342Z,1009
2023-02-11T01:50:19.645Z,1009
2023-02-11T01:55:39.081Z,1008.9
2023-02-11T02:00:58.442Z,1008.8
2023-02-11T02:06:18.002Z,1008.8
2023-02-11T02:11:37.376Z,1008.7
2023-02-11T02:18:11.546Z,1008.6
2023-02-11T02:22:16.320Z,1008.6
2023-02-11T02:27:35.925Z,1008.5
2023-02-11T02:32:55.859Z,1008.3
2023-02-11T02:38:15.293Z,1008.3
2023-02-11T02:46:48.421Z,1008.3
2023-02-11T02:48:54.333Z,1008.3
2023-02-11T02:59:32.837Z,1008.3
2023-02-11T03:04:52.056Z,1008.2
2023-02-11T03:10:11.768Z,1008.1
2023-02-11T03:15:30.555Z,1008.2
2023-02-11T03:20:49.970Z,1008.3
2023-02-11T03:26:09.515Z,1008.2
2023-02-11T03:31:29.262Z,1008.1
2023-02-11T03:36:48.813Z,1008.4
2023-02-11T03:42:07.769Z,1008.4
2023-02-11T03:47:27.093Z,1008.4
2023-02-11T03:52:46.777Z,1008.3
2023-02-11T03:58:06.179Z,1008.3
2023-02-11T04:03:25.770Z,1008.3
2023-02-11T04:08:45.309Z,1008.3
2023-02-11T04:14:05.021Z,1008.2
2023-02-11T04:19:23.680Z,1008.1
2023-02-11T04:24:42.817Z,1008
2023-02-11T04:30:02.260Z,1008
2023-02-11T04:35:21.483Z,1008.1
2023-02-11T04:40:40.307Z,1007.9
2023-02-11T04:46:00.061Z,1008
2023-02-11T04:51:18.830Z,1008
2023-02-11T04:56:38.317Z,1008
2023-02-11T05:01:58.055Z,1008
2023-02-11T05:07:17.615Z,1008
2023-02-11T05:12:37.377Z,1008
2023-02-11T05:17:56.812Z,1008.1
2023-02-11T05:23:16.332Z,1008
2023-02-11T05:28:36.135Z,1008.1
2023-02-11T05:33:55.040Z,1007.9
2023-02-11T05:39:13.994Z,1007.9
2023-02-11T05:44:33.650Z,1007.8
2023-02-11T05:49:52.546Z,1007.8
2023-02-11T05:55:11.838Z,1007.7
2023-02-11T06:00:30.711Z,1007.8
2023-02-11T06:05:50.637Z,1007.8
2023-02-11T06:11:09.599Z,1007.8
2023-02-11T06:16:29.058Z,1007.7
2023-02-11T06:21:48.515Z,1007.5
2023-02-11T06:30:21.563Z,1007.6
2023-02-11T06:32:42.580Z,1007.7
2023-02-11T06:37:45.148Z,1007.6
2023-02-11T06:43:04.592Z,1007.5
2023-02-11T06:48:23.559Z,1007.5
2023-02-11T06:53:42.624Z,1007.4
2023-02-11T06:59:01.633Z,1007.6
2023-02-11T07:04:21.146Z,1007.6
2023-02-11T07:09:40.708Z,1007.7
2023-02-11T07:15:00.121Z,1007.6
2023-02-11T07:20:19.734Z,1007.8
2023-02-11T07:25:39.218Z,1007.6
2023-02-11T07:30:59.009Z,1007.6
2023-02-11T07:37:33.059Z,1007.7
2023-02-11T07:41:49.572Z,1007.6
2023-02-11T07:46:58.201Z,1007.7
2023-02-11T07:52:16.994Z,1007.7
2023-02-11T07:57:36.512Z,1007.8
2023-02-11T08:02:56.268Z,1007.9
2023-02-11T08:08:14.048Z,1007.9
2023-02-11T08:13:33.383Z,1007.9
2023-02-11T08:18:53.138Z,1007.9
2023-02-11T08:24:12.726Z,1008
2023-02-11T08:29:31.872Z,1008
2023-02-11T08:34:51.215Z,1008
2023-02-11T08:40:10.549Z,1007.9
2023-02-11T08:45:29.678Z,1007.9
2023-02-11T08:50:48.990Z,1008
2023-02-11T08:56:08.528Z,1008
2023-02-11T09:01:27.432Z,1008
2023-02-11T09:06:46.215Z,1008
2023-02-11T09:12:05.641Z,1008
2023-02-11T09:17:25.225Z,1008
2023-02-11T09:22:44.463Z,1007.9
2023-02-11T09:28:03.467Z,1007.8
2023-02-11T09:33:22.606Z,1007.7
2023-02-11T09:38:41.704Z,1008
2023-02-11T09:44:00.024Z,1007.9
2023-02-11T09:49:19.390Z,1007.8
2023-02-11T09:54:38.731Z,1007.9
2023-02-11T09:59:58.328Z,1007.7
2023-02-11T10:05:17.455Z,1007.7
2023-02-11T10:10:37.016Z,1007.7
2023-02-11T10:15:56.049Z,1007.7
2023-02-11T10:21:15.512Z,1007.7
2023-02-11T10:26:35.110Z,1007.7
2023-02-11T10:31:55.344Z,1007.7
2023-02-11T10:37:13.518Z,1007.7
2023-02-11T10:42:32.774Z,1007.8
2023-02-11T10:47:52.623Z,1007.8
2023-02-11T10:53:11.540Z,1008
2023-02-11T10:58:30.859Z,1007.9
2023-02-11T11:03:50.384Z,1007.9
2023-02-11T11:09:09.534Z,1007.9
2023-02-11T11:14:31.360Z,1008
2023-02-11T11:19:48.216Z,1008
2023-02-11T11:25:07.502Z,1008
2023-02-11T11:30:27.205Z,1007.9
2023-02-11T11:35:45.678Z,1007.8
2023-02-11T11:41:04.888Z,1007.8
2023-02-11T11:46:24.511Z,1007.8
2023-02-11T11:51:43.617Z,1007.8
2023-02-11T11:57:02.741Z,1007.7
2023-02-11T12:02:21.850Z,1007.8
2023-02-11T12:07:41.509Z,1007.7
2023-02-11T12:13:00.910Z,1007.7
2023-02-11T12:19:35.092Z,1007.6
2023-02-11T12:23:40.273Z,1007.5
2023-02-11T12:28:59.527Z,1007.5
2023-02-11T12:34:18.783Z,1007.5
2023-02-11T12:39:38.065Z,1007.4
2023-02-11T12:44:56.935Z,1007.3
2023-02-11T12:50:16.366Z,1007.4
2023-02-11T12:55:35.886Z,1007.5
2023-02-11T13:00:55.187Z,1007.5
2023-02-11T13:06:12.609Z,1007.4
2023-02-11T13:11:32.136Z,1007.4
2023-02-11T13:16:51.672Z,1007.5
2023-02-11T13:22:10.610Z,1007.4
2023-02-11T13:27:29.431Z,1007.4
2023-02-11T13:32:48.333Z,1007.3
2023-02-11T13:38:07.385Z,1007.3
2023-02-11T13:43:26.724Z,1007.3
2023-02-11T13:48:46.213Z,1007.3
2023-02-11T13:54:05.898Z,1007.3
2023-02-11T13:59:25.350Z,1007.3
2023-02-11T14:04:45.913Z,1007.3
2023-02-11T14:10:04.396Z,1007.3
2023-02-11T14:15:23.334Z,1007.3
2023-02-11T14:20:42.368Z,1007.3
2023-02-11T14:26:02.036Z,1007.3
2023-02-11T14:31:21.764Z,1007.4
2023-02-11T14:36:41.220Z,1007.4
2023-02-11T14:42:00.758Z,1007.3
2023-02-11T14:47:20.476Z,1007.3
2023-02-11T14:52:39.442Z,1007.3
2023-02-11T14:57:58.464Z,1007.4
2023-02-11T15:03:18.143Z,1007.4
2023-02-11T15:08:37.457Z,1007.5
2023-02-11T15:13:56.335Z,1007.5
2023-02-11T15:19:15.601Z,1007.6
2023-02-11T15:24:34.976Z,1007.6
2023-02-11T15:29:53.992Z,1007.6
2023-02-11T15:35:13.682Z,1007.6
2023-02-11T15:40:32.512Z,1007.7
2023-02-11T15:45:51.657Z,1007.6
2023-02-11T15:51:11.171Z,1007.6
2023-02-11T15:56:30.846Z,1007.5
2023-02-11T16:01:50.176Z,1007.5
2023-02-11T16:07:09.248Z,1007.6
2023-02-11T16:12:28.336Z,1007.6
2023-02-11T16:17:47.806Z,1007.6
2023-02-11T16:23:07.346Z,1007.6
2023-02-11T16:28:26.843Z,1007.6
2023-02-11T16:33:45.538Z,1007.7
2023-02-11T16:39:04.944Z,1007.8
2023-02-11T16:44:23.726Z,1007.7
2023-02-11T16:49:43.363Z,1007.8
2023-02-11T16:55:03.188Z,1007.8
2023-02-11T17:00:22.578Z,1007.9
2023-02-11T17:05:54.598Z,1008
2023-02-11T17:11:01.145Z,1008
2023-02-11T17:16:20.881Z,1008.1
2023-02-11T17:21:40.600Z,1008.2
2023-02-11T17:27:24.860Z,1008.3
2023-02-11T17:32:44.424Z,1008.3
2023-02-11T17:38:04.118Z,1008.5
2023-02-11T17:43:22.954Z,1008.4
2023-02-11T17:48:42.634Z,1008.4
2023-02-11T17:54:02.090Z,1008.5
2023-02-11T17:59:21.576Z,1008.5
2023-02-11T18:04:40.967Z,1008.6
2023-02-11T18:10:00.172Z,1008.6
2023-02-11T18:15:19.763Z,1008.6
2023-02-11T18:20:39.457Z,1008.5
2023-02-11T18:25:58.641Z,1008.6
2023-02-11T18:31:17.800Z,1008.6
2023-02-11T18:36:36.877Z,1008.5
2023-02-11T18:41:56.671Z,1008.6
2023-02-11T18:47:16.213Z,1008.6
2023-02-11T18:52:35.802Z,1008.6
2023-02-11T18:57:54.672Z,1008.6
2023-02-11T19:03:13.937Z,1008.5
2023-02-11T19:08:32.530Z,1008.5
2023-02-11T19:13:52.013Z,1008.5
2023-02-11T19:19:10.961Z,1008.6
2023-02-11T19:24:30.632Z,1008.6
2023-02-11T19:29:49.598Z,1008.5
2023-02-11T19:35:08.770Z,1008.6
2023-02-11T19:40:27.605Z,1008.6
2023-02-11T19:45:46.568Z,1008.6
2023-02-11T19:51:06.980Z,1008.7
2023-02-11T19:56:26.492Z,1008.8
2023-02-11T20:03:00.678Z,1008.8
2023-02-11T20:07:05.232Z,1008.8
2023-02-11T20:12:24.179Z,1008.9
2023-02-11T20:17:43.516Z,1008.9
2023-02-11T20:23:02.661Z,1008.9
2023-02-11T20:28:22.445Z,1008.9
2023-02-11T20:33:41.905Z,1008.8
2023-02-11T20:39:00.819Z,1008.9
2023-02-11T20:44:19.749Z,1008.9
2023-02-11T20:49:39.041Z,1008.9
2023-02-11T20:54:58.829Z,1009
2023-02-11T21:00:18.109Z,1009
2023-02-11T21:05:37.880Z,1008.9
2023-02-11T21:10:57.266Z,1008.9
2023-02-11T21:16:16.806Z,1009
2023-02-11T21:21:35.679Z,1009
2023-02-11T21:26:55.392Z,1009.2
2023-02-11T21:32:14.966Z,1009.4
2023-02-11T21:37:33.898Z,1009.4
2023-02-11T21:42:52.961Z,1009.5
2023-02-11T21:48:12.389Z,1009.4
2023-02-11T21:54:46.564Z,1009.5
2023-02-11T21:58:52.713Z,1009.4
2023-02-11T22:04:12.469Z,1009.4
2023-02-11T22:09:31.783Z,1009.4
2023-02-11T22:14:50.318Z,1009.2
2023-02-11T22:20:09.814Z,1009.3
2023-02-11T22:25:29.052Z,1009.1
2023-02-11T22:30:48.145Z,1009.2
2023-02-11T22:36:07.118Z,1009.2
2023-02-11T22:41:26.224Z,1009.2
2023-02-11T22:46:45.462Z,1009.4
2023-02-11T22:52:04.423Z,1009.5
2023-02-11T22:57:23.440Z,1009.6
2023-02-11T23:02:42.565Z,1009.6
2023-02-11T23:08:01.996Z,1009.6
2023-02-11T23:13:21.230Z,1009.7
2023-02-11T23:18:40.615Z,1009.8
2023-02-11T23:24:00.357Z,1009.7
2023-02-11T23:29:19.646Z,1009.8
2023-02-11T23:34:38.895Z,1009.7
2023-02-11T23:39:57.924Z,1009.7
2023-02-11T23:45:16.862Z,1009.8
2023-02-11T23:50:35.008Z,1009.7
2023-02-11T23:55:54.617Z,1009.7
